createdAt,value
2019-03-12T00:01:59.175Z,1.60
2019-03-12T00:04:26.538Z,1.60
2019-03-12T00:06:53.807Z,1.60
2019-03-12T00:09:21.091Z,1.60
2019-03-12T00:11:48.363Z,1.70
2019-03-12T00:14:15.691Z,1.70
2019-03-12T00:16:42.918Z,1.70
2019-03-12T00:19:10.268Z,1.70
2019-03-12T00:21:37.524Z,1.60
2019-03-12T00:24:04.958Z,1.70
2019-03-12T00:26:32.220Z,1.70
2019-03-12T00:28:59.566Z,1.70
2019-03-12T00:31:26.698Z,1.60
2019-03-12T00:33:53.997Z,1.60
2019-03-12T00:36:21.262Z,1.60
2019-03-12T00:38:48.478Z,1.60
2019-03-12T00:41:15.704Z,1.70
2019-03-12T00:43:43.204Z,1.70
2019-03-12T00:46:10.630Z,1.70
2019-03-12T00:48:37.990Z,1.70
2019-03-12T00:51:05.219Z,1.70
2019-03-12T00:53:32.404Z,1.70
2019-03-12T00:55:59.667Z,1.70
2019-03-12T00:58:27.014Z,1.70
2019-03-12T01:00:54.316Z,1.70
2019-03-12T01:03:21.639Z,1.70
2019-03-12T01:05:48.988Z,1.80
2019-03-12T01:08:16.394Z,1.80
2019-03-12T01:10:43.628Z,1.80
2019-03-12T01:13:14.170Z,1.80
2019-03-12T01:15:41.442Z,1.80
2019-03-12T01:18:08.720Z,1.70
2019-03-12T01:20:35.964Z,1.70
2019-03-12T01:23:03.258Z,1.70
2019-03-12T01:25:30.594Z,1.60
2019-03-12T01:27:57.894Z,1.60
2019-03-12T01:30:25.206Z,1.60
2019-03-12T01:32:52.605Z,1.60
2019-03-12T01:35:20.026Z,1.60
2019-03-12T01:37:47.283Z,1.60
2019-03-12T01:40:14.680Z,1.60
2019-03-12T01:42:41.948Z,1.60
2019-03-12T01:45:11.202Z,1.50
2019-03-12T01:47:38.506Z,1.50
2019-03-12T01:50:06.168Z,1.50
2019-03-12T01:52:33.460Z,1.50
2019-03-12T01:55:01.626Z,1.50
2019-03-12T01:57:29.044Z,1.50
2019-03-12T01:59:56.362Z,1.50
2019-03-12T02:02:23.742Z,1.50
2019-03-12T02:04:51.144Z,1.40
2019-03-12T02:07:18.436Z,1.40
2019-03-12T02:09:45.766Z,1.30
2019-03-12T02:12:13.088Z,1.20
2019-03-12T02:14:40.355Z,1.20
2019-03-12T02:17:07.482Z,1.20
2019-03-12T02:19:34.771Z,1.20
2019-03-12T02:22:02.019Z,1.20
2019-03-12T02:24:29.291Z,1.20
2019-03-12T02:26:56.543Z,1.30
2019-03-12T02:29:23.679Z,1.30
2019-03-12T02:31:50.880Z,1.40
2019-03-12T02:34:18.211Z,1.30
2019-03-12T02:36:45.380Z,1.30
2019-03-12T02:39:12.822Z,1.30
2019-03-12T02:41:40.139Z,1.30
2019-03-12T02:44:07.474Z,1.20
2019-03-12T02:46:36.312Z,1.20
2019-03-12T02:49:04.029Z,1.20
2019-03-12T02:51:31.365Z,1.20
2019-03-12T02:53:58.670Z,1.10
2019-03-12T02:56:25.825Z,1.10
2019-03-12T02:58:53.114Z,0.90
2019-03-12T03:01:20.500Z,0.90
2019-03-12T03:03:47.932Z,0.80
2019-03-12T03:06:32.121Z,0.80
2019-03-12T03:08:59.415Z,0.90
2019-03-12T03:11:26.890Z,0.90
2019-03-12T03:13:54.047Z,0.90
2019-03-12T03:16:24.202Z,1.00
2019-03-12T03:18:50.681Z,1.00
2019-03-12T03:21:18.080Z,1.00
2019-03-12T03:23:45.360Z,1.00
2019-03-12T03:26:12.679Z,1.00
2019-03-12T03:28:39.931Z,1.10
2019-03-12T03:31:07.181Z,1.00
2019-03-12T03:33:34.698Z,0.90
2019-03-12T03:36:02.130Z,0.90
2019-03-12T03:38:29.556Z,0.90
2019-03-12T03:40:56.959Z,0.90
2019-03-12T03:43:24.396Z,0.90
2019-03-12T03:45:51.744Z,0.90
2019-03-12T03:48:18.923Z,0.90
2019-03-12T03:50:46.298Z,0.90
2019-03-12T03:53:13.553Z,0.90
2019-03-12T03:55:40.928Z,0.90
2019-03-12T03:58:08.045Z,0.80
2019-03-12T04:00:35.334Z,0.70
2019-03-12T04:03:02.688Z,0.70
2019-03-12T04:05:29.836Z,0.70
2019-03-12T04:07:58.993Z,0.70
2019-03-12T04:10:26.306Z,0.60
2019-03-12T04:12:53.562Z,0.70
2019-03-12T04:15:20.917Z,0.80
2019-03-12T04:17:48.275Z,0.90
2019-03-12T04:20:16.011Z,1.00
2019-03-12T04:22:43.306Z,1.00
2019-03-12T04:25:11.394Z,1.00
2019-03-12T04:27:38.704Z,1.10
2019-03-12T04:30:06.878Z,1.10
2019-03-12T04:32:34.053Z,1.10
2019-03-12T04:35:01.303Z,1.10
2019-03-12T04:37:28.567Z,1.10
2019-03-12T04:39:55.893Z,1.20
2019-03-12T04:42:23.153Z,1.20
2019-03-12T04:44:51.441Z,1.20
2019-03-12T04:47:18.747Z,1.20
2019-03-12T04:49:45.978Z,1.30
2019-03-12T04:52:13.300Z,1.20
2019-03-12T04:54:40.448Z,1.20
2019-03-12T04:57:07.729Z,1.20
2019-03-12T04:59:35.036Z,1.20
2019-03-12T05:02:02.305Z,1.20
2019-03-12T05:04:29.755Z,1.10
2019-03-12T05:06:57.143Z,1.10
2019-03-12T05:09:24.395Z,1.20
2019-03-12T05:11:51.733Z,1.20
2019-03-12T05:14:30.016Z,1.20
2019-03-12T05:17:00.360Z,1.20
2019-03-12T05:19:28.121Z,1.20
2019-03-12T05:21:55.440Z,1.20
2019-03-12T05:24:22.724Z,1.20
2019-03-12T05:26:51.146Z,1.10
2019-03-12T05:29:18.636Z,1.20
2019-03-12T05:31:45.882Z,1.20
2019-03-12T05:34:13.207Z,1.20
2019-03-12T05:36:40.407Z,1.30
2019-03-12T05:39:07.840Z,1.30
2019-03-12T05:41:34.975Z,1.30
2019-03-12T05:44:02.142Z,1.30
2019-03-12T05:46:29.383Z,1.20
2019-03-12T05:48:56.758Z,1.30
2019-03-12T05:51:24.032Z,1.30
2019-03-12T05:53:51.493Z,1.30
2019-03-12T05:56:18.726Z,1.30
2019-03-12T05:58:45.994Z,1.40
2019-03-12T06:01:13.318Z,1.40
2019-03-12T06:03:40.586Z,1.50
2019-03-12T06:06:07.979Z,1.50
2019-03-12T06:08:35.343Z,1.50
2019-03-12T06:11:02.513Z,1.60
2019-03-12T06:13:29.747Z,1.60
2019-03-12T06:15:57.040Z,1.60
2019-03-12T06:18:24.254Z,1.70
2019-03-12T06:20:51.939Z,1.80
2019-03-12T06:23:19.201Z,1.80
2019-03-12T06:25:46.438Z,2.00
2019-03-12T06:28:13.736Z,2.20
2019-03-12T06:31:00.908Z,2.50
2019-03-12T06:33:46.771Z,2.70
2019-03-12T06:36:29.018Z,2.80
2019-03-12T06:39:06.754Z,2.90
2019-03-12T06:41:45.042Z,3.10
2019-03-12T06:44:20.704Z,3.40
2019-03-12T06:46:55.802Z,3.60
2019-03-12T06:49:42.594Z,3.70
2019-03-12T06:52:26.010Z,3.80
2019-03-12T06:55:18.999Z,3.90
2019-03-12T06:58:17.434Z,4.00
2019-03-12T07:00:52.703Z,4.30
2019-03-12T07:03:37.828Z,4.60
2019-03-12T07:06:30.260Z,4.70
2019-03-12T07:09:10.433Z,5.00
2019-03-12T07:11:57.268Z,5.60
2019-03-12T07:14:38.514Z,6.40
2019-03-12T07:17:19.975Z,7.80
2019-03-12T07:19:59.393Z,13.40
2019-03-12T07:22:35.515Z,13.70
2019-03-12T07:25:23.718Z,11.60
2019-03-12T07:27:59.927Z,10.40
2019-03-12T07:30:37.212Z,12.10
2019-03-12T07:33:10.429Z,16.00
2019-03-12T07:35:55.282Z,19.30
2019-03-12T07:38:42.213Z,17.20
2019-03-12T07:41:32.339Z,15.00
2019-03-12T07:44:14.546Z,12.40
2019-03-12T07:47:16.494Z,10.70
2019-03-12T07:50:08.842Z,10.70
2019-03-12T07:52:44.519Z,10.90
2019-03-12T07:55:29.643Z,11.00
2019-03-12T07:58:05.439Z,11.00
2019-03-12T08:00:47.558Z,10.30
2019-03-12T08:03:34.338Z,10.20
2019-03-12T08:06:21.208Z,9.20
2019-03-12T08:09:01.022Z,8.70
2019-03-12T08:11:36.048Z,11.60
2019-03-12T08:14:26.562Z,15.30
2019-03-12T08:17:05.306Z,18.40
2019-03-12T08:19:50.708Z,21.40
2019-03-12T08:22:35.695Z,25.40
2019-03-12T08:25:18.442Z,28.40
2019-03-12T08:28:14.077Z,30.70
2019-03-12T08:31:01.021Z,31.00
2019-03-12T08:33:50.398Z,31.40
2019-03-12T08:36:31.563Z,30.90
2019-03-12T08:39:12.571Z,30.80
2019-03-12T08:41:57.617Z,26.80
2019-03-12T08:44:59.900Z,27.70
2019-03-12T08:47:46.666Z,29.30
2019-03-12T08:50:27.277Z,32.40
2019-03-12T08:53:21.518Z,34.30
2019-03-12T08:56:14.065Z,36.80
2019-03-12T08:58:48.000Z,37.40
2019-03-12T09:01:23.497Z,36.60
2019-03-12T09:04:08.808Z,35.50
2019-03-12T09:06:58.625Z,30.80
2019-03-12T09:09:36.832Z,26.70
2019-03-12T09:12:23.621Z,24.30
2019-03-12T09:15:28.332Z,24.80
2019-03-12T09:18:14.847Z,22.90
2019-03-12T09:21:19.716Z,20.70
2019-03-12T09:23:53.861Z,21.80
2019-03-12T09:26:40.663Z,19.20
2019-03-12T09:29:15.694Z,16.70
2019-03-12T09:32:08.098Z,14.70
2019-03-12T09:34:48.417Z,13.10
2019-03-12T09:37:44.078Z,12.00
2019-03-12T09:40:31.077Z,12.00
2019-03-12T09:43:14.147Z,12.70
2019-03-12T09:46:13.073Z,12.90
2019-03-12T09:49:11.443Z,11.90
2019-03-12T09:51:46.532Z,11.30
2019-03-12T09:54:39.339Z,11.20
2019-03-12T09:57:31.719Z,11.00
2019-03-12T10:00:24.426Z,11.30
2019-03-12T10:03:14.019Z,10.70
2019-03-12T10:06:04.742Z,10.60
2019-03-12T10:08:50.138Z,11.50
2019-03-12T10:11:25.123Z,11.90
2019-03-12T10:14:20.923Z,12.60
2019-03-12T10:17:06.148Z,12.10
2019-03-12T10:19:47.747Z,11.30
2019-03-12T10:22:40.969Z,11.40
2019-03-12T10:25:33.646Z,11.20
2019-03-12T10:28:26.166Z,10.20
2019-03-12T10:31:01.235Z,10.00
2019-03-12T10:33:56.949Z,14.30
2019-03-12T10:36:46.600Z,20.70
2019-03-12T10:40:19.358Z,18.60
2019-03-12T10:43:13.255Z,16.60
2019-03-12T10:46:08.864Z,15.00
2019-03-12T10:48:36.083Z,13.40
2019-03-12T10:51:03.305Z,12.40
2019-03-12T10:53:30.569Z,11.80
2019-03-12T10:55:57.788Z,11.10
2019-03-12T10:58:25.066Z,10.90
2019-03-12T11:00:52.372Z,14.30
2019-03-12T11:03:19.967Z,16.10
2019-03-12T11:05:47.201Z,14.90
2019-03-12T11:08:14.445Z,15.10
2019-03-12T11:10:41.958Z,18.30
2019-03-12T11:13:09.213Z,21.30
2019-03-12T11:15:36.454Z,19.90
2019-03-12T11:18:03.835Z,20.10
2019-03-12T11:20:30.986Z,20.70
2019-03-12T11:22:58.143Z,24.00
2019-03-12T11:25:27.601Z,26.40
2019-03-12T11:27:54.590Z,28.10
2019-03-12T11:30:21.960Z,29.20
2019-03-12T11:32:49.229Z,29.30
2019-03-12T11:35:16.493Z,28.80
2019-03-12T11:37:43.801Z,29.00
2019-03-12T11:40:13.847Z,29.10
2019-03-12T11:42:41.166Z,28.80
2019-03-12T11:45:15.417Z,28.60
2019-03-12T11:47:37.738Z,28.20
2019-03-12T11:50:06.517Z,27.60
2019-03-12T11:52:33.813Z,26.50
2019-03-12T11:55:01.256Z,25.40
2019-03-12T11:57:28.689Z,25.00
2019-03-12T11:59:55.825Z,24.30
2019-03-12T12:02:23.190Z,23.70
2019-03-12T12:04:50.482Z,22.60
2019-03-12T12:07:17.728Z,22.70
2019-03-12T12:09:44.939Z,21.10
2019-03-12T12:12:12.175Z,19.30
2019-03-12T12:14:39.485Z,19.80
2019-03-12T12:17:06.752Z,19.30
2019-03-12T12:19:34.010Z,19.60
2019-03-12T12:22:01.180Z,19.80
2019-03-12T12:24:28.476Z,18.60
2019-03-12T12:26:55.879Z,18.80
2019-03-12T12:29:23.126Z,20.00
2019-03-12T12:31:50.289Z,20.50
2019-03-12T12:34:17.498Z,21.60
2019-03-12T12:36:44.895Z,22.50
2019-03-12T12:39:12.026Z,23.20
2019-03-12T12:41:39.216Z,23.30
2019-03-12T12:44:06.441Z,20.90
2019-03-12T12:46:33.562Z,20.70
2019-03-12T12:49:00.710Z,20.80
2019-03-12T12:51:28.102Z,19.80
2019-03-12T12:53:55.259Z,18.90
2019-03-12T12:56:22.486Z,18.60
2019-03-12T12:58:49.810Z,18.80
2019-03-12T13:01:17.101Z,19.00
2019-03-12T13:03:44.362Z,18.90
2019-03-12T13:06:11.527Z,18.30
2019-03-12T13:08:38.768Z,17.70
2019-03-12T13:11:05.993Z,17.50
2019-03-12T13:13:33.222Z,16.80
2019-03-12T13:16:00.813Z,15.60
2019-03-12T13:18:28.142Z,14.70
2019-03-12T13:20:55.255Z,13.70
2019-03-12T13:23:22.526Z,12.30
2019-03-12T13:25:49.776Z,11.40
2019-03-12T13:28:16.986Z,10.50
2019-03-12T13:30:44.268Z,10.20
2019-03-12T13:33:11.542Z,9.90
2019-03-12T13:35:38.672Z,9.80
2019-03-12T13:38:05.912Z,9.70
2019-03-12T13:40:33.293Z,9.50
2019-03-12T13:43:00.486Z,9.40
2019-03-12T13:45:28.106Z,9.30
2019-03-12T13:47:55.413Z,9.30
2019-03-12T13:50:23.074Z,9.20
2019-03-12T13:52:50.245Z,9.10
2019-03-12T13:55:17.598Z,9.10
2019-03-12T13:57:44.772Z,9.00
2019-03-12T14:00:14.871Z,9.00
2019-03-12T14:02:42.539Z,8.70
2019-03-12T14:05:09.939Z,8.50
2019-03-12T14:07:37.069Z,8.50
2019-03-12T14:10:04.825Z,8.40
2019-03-12T14:12:31.959Z,8.50
2019-03-12T14:14:59.091Z,8.50
2019-03-12T14:17:26.274Z,8.50
2019-03-12T14:19:53.524Z,8.50
2019-03-12T14:22:20.802Z,8.50
2019-03-12T14:24:48.102Z,8.50
2019-03-12T14:27:15.351Z,8.40
2019-03-12T14:29:42.651Z,8.40
2019-03-12T14:32:12.059Z,8.30
2019-03-12T14:34:39.092Z,8.10
2019-03-12T14:37:06.364Z,8.10
2019-03-12T14:39:33.562Z,8.10
2019-03-12T14:42:00.795Z,8.10
2019-03-12T14:44:28.111Z,8.20
2019-03-12T14:46:55.386Z,8.20
2019-03-12T14:49:22.627Z,8.20
2019-03-12T14:52:23.155Z,8.20
2019-03-12T14:54:50.382Z,8.20
2019-03-12T14:57:17.606Z,8.10
2019-03-12T14:59:44.740Z,8.00
2019-03-12T15:02:12.116Z,8.00
2019-03-12T15:04:39.503Z,8.10
2019-03-12T15:07:06.779Z,8.00
2019-03-12T15:09:33.971Z,8.00
2019-03-12T15:12:01.182Z,8.00
2019-03-12T15:14:28.305Z,8.00
2019-03-12T15:16:55.454Z,8.00
2019-03-12T15:19:22.715Z,8.10
2019-03-12T15:21:49.827Z,8.00
2019-03-12T15:24:17.061Z,8.00
2019-03-12T15:26:44.322Z,7.90
2019-03-12T15:29:11.464Z,7.90
2019-03-12T15:31:38.731Z,7.90
2019-03-12T15:34:05.992Z,7.90
2019-03-12T15:36:33.277Z,7.70
2019-03-12T15:39:00.504Z,7.50
2019-03-12T15:41:27.786Z,7.30
2019-03-12T15:43:54.940Z,7.20
2019-03-12T15:46:22.080Z,7.20
2019-03-12T15:48:49.531Z,7.10
2019-03-12T15:51:16.728Z,7.00
2019-03-12T15:53:43.958Z,6.90
2019-03-12T15:56:11.087Z,6.90
2019-03-12T15:58:38.308Z,7.00
2019-03-12T16:01:05.546Z,7.00
2019-03-12T16:03:32.804Z,7.10
2019-03-12T16:05:59.957Z,7.20
2019-03-12T16:08:27.092Z,7.20
2019-03-12T16:10:58.421Z,7.30
2019-03-12T16:13:23.341Z,7.30
2019-03-12T16:15:50.501Z,7.40
2019-03-12T16:18:17.635Z,7.50
2019-03-12T16:20:44.814Z,7.50
2019-03-12T16:23:12.091Z,7.50
2019-03-12T16:25:39.357Z,7.40
2019-03-12T16:28:06.509Z,7.40
2019-03-12T16:30:33.850Z,7.40
2019-03-12T16:33:01.102Z,7.30
2019-03-12T16:35:38.720Z,7.30
2019-03-12T16:38:07.138Z,7.10
2019-03-12T16:40:35.072Z,7.10
2019-03-12T16:43:02.732Z,6.90
2019-03-12T16:45:30.396Z,6.90
2019-03-12T16:48:04.090Z,6.80
2019-03-12T16:50:31.747Z,6.70
2019-03-12T16:53:00.637Z,6.70
2019-03-12T16:55:28.266Z,6.60
2019-03-12T16:57:58.816Z,6.50
2019-03-12T17:00:30.890Z,6.40
2019-03-12T17:03:02.122Z,6.40
2019-03-12T17:05:31.794Z,6.30
2019-03-12T17:08:00.638Z,6.20
2019-03-12T17:10:32.801Z,6.10
2019-03-12T17:13:03.477Z,6.00
2019-03-12T17:15:34.861Z,5.90
2019-03-12T17:18:02.364Z,5.80
2019-03-12T17:20:34.261Z,5.70
2019-03-12T17:23:02.007Z,5.60
2019-03-12T17:25:30.853Z,5.50
2019-03-12T17:28:00.973Z,5.40
2019-03-12T17:30:28.828Z,5.30
2019-03-12T17:32:56.506Z,5.30
2019-03-12T17:35:27.746Z,5.30
2019-03-12T17:37:57.708Z,5.30
2019-03-12T17:40:28.022Z,5.30
2019-03-12T17:42:57.417Z,5.30
2019-03-12T17:45:25.043Z,5.20
2019-03-12T17:47:56.636Z,5.10
2019-03-12T17:50:25.549Z,5.00
2019-03-12T17:52:55.851Z,4.90
2019-03-12T17:55:25.822Z,4.80
2019-03-12T17:58:00.077Z,4.70
2019-03-12T18:00:30.629Z,4.60
2019-03-12T18:02:58.136Z,4.60
2019-03-12T18:05:25.621Z,4.50
2019-03-12T18:07:53.274Z,4.40
2019-03-12T18:10:22.678Z,4.40
2019-03-12T18:12:50.385Z,4.20
2019-03-12T18:15:20.968Z,4.10
2019-03-12T18:17:51.278Z,4.00
2019-03-12T18:20:21.347Z,4.00
2019-03-12T18:22:48.882Z,3.80
2019-03-12T18:25:22.027Z,3.70
2019-03-12T18:27:49.508Z,3.70
2019-03-12T18:30:20.879Z,3.60
2019-03-12T18:32:49.831Z,3.50
2019-03-12T18:35:22.259Z,3.40
2019-03-12T18:37:51.161Z,3.40
2019-03-12T18:40:22.237Z,3.30
2019-03-12T18:42:52.764Z,3.20
2019-03-12T18:45:21.978Z,3.20
2019-03-12T18:47:54.529Z,3.20
2019-03-12T18:50:27.287Z,3.30
2019-03-12T18:52:57.431Z,3.60
2019-03-12T18:56:02.112Z,3.70
2019-03-12T18:58:34.951Z,3.80
2019-03-12T19:01:17.121Z,3.90
2019-03-12T19:03:50.937Z,3.90
2019-03-12T19:06:21.218Z,3.90
2019-03-12T19:08:52.808Z,4.00
2019-03-12T19:11:25.281Z,4.10
2019-03-12T19:13:52.820Z,4.10
2019-03-12T19:16:30.473Z,4.10
2019-03-12T19:19:00.795Z,4.00
2019-03-12T19:21:28.486Z,3.90
2019-03-12T19:23:58.092Z,3.80
2019-03-12T19:26:31.633Z,3.70
2019-03-12T19:29:02.148Z,3.70
2019-03-12T19:31:58.490Z,3.70
2019-03-12T19:34:38.281Z,3.60
2019-03-12T19:37:07.850Z,3.50
2019-03-12T19:39:40.605Z,3.30
2019-03-12T19:42:11.021Z,3.10
2019-03-12T19:44:38.322Z,3.10
2019-03-12T19:47:05.556Z,3.10
2019-03-12T19:49:32.720Z,3.10
2019-03-12T19:51:59.858Z,3.00
2019-03-12T19:54:27.154Z,3.00
2019-03-12T19:56:54.445Z,2.90
2019-03-12T19:59:21.607Z,2.90
2019-03-12T20:01:50.297Z,2.90
2019-03-12T20:04:17.627Z,2.90
2019-03-12T20:06:45.111Z,3.00
2019-03-12T20:09:21.413Z,3.20
2019-03-12T20:12:16.085Z,3.40
2019-03-12T20:15:18.801Z,3.50
2019-03-12T20:18:51.889Z,3.50
2019-03-12T20:21:49.778Z,3.50
2019-03-12T20:25:00.373Z,3.40
2019-03-12T20:27:59.317Z,3.30
2019-03-12T20:31:35.564Z,3.20
2019-03-12T20:34:49.303Z,3.00
2019-03-12T20:37:57.513Z,2.90
2019-03-12T20:41:14.587Z,2.80
2019-03-12T20:44:38.361Z,2.80
2019-03-12T20:48:14.346Z,2.70
2019-03-12T20:51:18.904Z,2.70
2019-03-12T20:54:23.767Z,2.80
2019-03-12T20:57:37.172Z,2.90
2019-03-12T21:00:48.191Z,2.80
2019-03-12T21:03:52.090Z,2.70
2019-03-12T21:07:07.217Z,2.60
2019-03-12T21:10:12.754Z,2.50
2019-03-12T21:13:07.195Z,2.40
2019-03-12T21:16:06.260Z,2.30
2019-03-12T21:19:09.926Z,2.30
2019-03-12T21:22:34.168Z,2.30
2019-03-12T21:25:23.679Z,2.30
2019-03-12T21:28:26.530Z,2.60
2019-03-12T21:30:53.960Z,2.70
2019-03-12T21:33:21.289Z,3.00
2019-03-12T21:35:48.507Z,3.10
2019-03-12T21:38:15.750Z,3.20
2019-03-12T21:40:43.075Z,3.20
2019-03-12T21:43:10.444Z,3.30
2019-03-12T21:45:37.792Z,3.40
2019-03-12T21:48:05.136Z,3.30
2019-03-12T21:50:32.299Z,3.20
2019-03-12T21:52:59.558Z,3.20
2019-03-12T21:55:26.705Z,3.40
2019-03-12T21:57:53.939Z,3.50
2019-03-12T22:00:21.255Z,3.70
2019-03-12T22:02:48.494Z,3.70
2019-03-12T22:05:15.755Z,3.80
2019-03-12T22:07:43.142Z,3.90
2019-03-12T22:10:10.513Z,4.00
2019-03-12T22:12:37.828Z,4.10
2019-03-12T22:15:05.879Z,4.20
2019-03-12T22:17:33.143Z,4.20
2019-03-12T22:20:00.558Z,4.30
2019-03-12T22:22:34.562Z,4.30
2019-03-12T22:25:01.810Z,4.40
2019-03-12T22:27:28.997Z,4.40
2019-03-12T22:29:56.237Z,4.40
2019-03-12T22:32:23.505Z,4.40
2019-03-12T22:34:50.775Z,4.40
2019-03-12T22:37:18.042Z,4.40
2019-03-12T22:39:45.358Z,4.40
2019-03-12T22:42:12.486Z,4.50
2019-03-12T22:44:39.843Z,4.50
2019-03-12T22:47:06.961Z,4.50
2019-03-12T22:49:34.219Z,4.50
2019-03-12T22:52:01.422Z,4.50
2019-03-12T22:54:28.800Z,4.60
2019-03-12T22:56:55.935Z,4.60
2019-03-12T22:59:23.186Z,4.60
2019-03-12T23:01:50.440Z,4.50
2019-03-12T23:04:17.697Z,4.50
2019-03-12T23:06:44.892Z,4.40
2019-03-12T23:09:12.027Z,4.40
2019-03-12T23:11:39.195Z,4.40
2019-03-12T23:14:06.425Z,4.20
2019-03-12T23:16:33.599Z,4.10
2019-03-12T23:19:00.850Z,4.00
2019-03-12T23:21:28.234Z,3.90
2019-03-12T23:23:55.466Z,4.00
2019-03-12T23:26:22.701Z,4.00
2019-03-12T23:28:49.967Z,3.90
2019-03-12T23:31:17.183Z,4.00
2019-03-12T23:33:44.407Z,4.00
2019-03-12T23:36:11.726Z,4.10
2019-03-12T23:38:39.043Z,4.20
2019-03-12T23:41:06.279Z,4.30
2019-03-12T23:43:33.541Z,4.30
2019-03-12T23:46:00.703Z,4.30
2019-03-12T23:48:27.999Z,4.30
2019-03-12T23:50:55.295Z,4.30
2019-03-12T23:53:22.563Z,4.30
2019-03-12T23:55:49.794Z,4.40
2019-03-12T23:58:17.043Z,4.40
